createdAt,value
2019-04-21T00:00:00.450Z,7.67
2019-04-21T00:01:08.602Z,7.68
2019-04-21T00:02:08.890Z,7.68
2019-04-21T00:03:20.631Z,7.69
2019-04-21T00:04:30.423Z,7.69
2019-04-21T00:05:40.110Z,7.70
2019-04-21T00:06:48.153Z,7.69
2019-04-21T00:07:51.095Z,7.67
2019-04-21T00:08:57.946Z,7.67
2019-04-21T00:10:04.035Z,7.66
2019-04-21T00:11:04.344Z,7.66
2019-04-21T00:12:08.958Z,7.66
2019-04-21T00:13:08.099Z,7.66
2019-04-21T00:14:11.424Z,7.65
2019-04-21T00:15:09.672Z,7.66
2019-04-21T00:16:07.436Z,7.65
2019-04-21T00:17:12.922Z,7.64
2019-04-21T00:18:14.350Z,7.64
2019-04-21T00:19:22.634Z,7.65
2019-04-21T00:20:30.942Z,7.65
2019-04-21T00:21:34.407Z,7.65
2019-04-21T00:22:41.959Z,7.64
2019-04-21T00:23:53.791Z,7.65
2019-04-21T00:24:51.900Z,7.66
2019-04-21T00:25:51.244Z,7.66
2019-04-21T00:27:05.605Z,7.67
2019-04-21T00:28:21.705Z,7.67
2019-04-21T00:29:16.593Z,7.67
2019-04-21T00:30:21.802Z,7.66
2019-04-21T00:31:23.176Z,7.66
2019-04-21T00:32:21.907Z,7.66
2019-04-21T00:33:17.601Z,7.66
2019-04-21T00:34:17.493Z,7.65
2019-04-21T00:35:25.773Z,7.65
2019-04-21T00:36:37.756Z,7.64
2019-04-21T00:37:48.284Z,7.63
2019-04-21T00:39:09.636Z,7.62
2019-04-21T00:39:59.963Z,7.62
2019-04-21T00:41:09.226Z,7.61
2019-04-21T00:42:05.175Z,7.60
2019-04-21T00:43:12.907Z,7.60
2019-04-21T00:44:08.491Z,7.58
2019-04-21T00:45:15.148Z,7.58
2019-04-21T00:46:12.326Z,7.58
2019-04-21T00:47:30.624Z,7.58
2019-04-21T00:48:36.522Z,7.58
2019-04-21T00:49:26.941Z,7.57
2019-04-21T00:51:01.689Z,7.58
2019-04-21T00:51:54.122Z,7.58
2019-04-21T00:52:58.026Z,7.59
2019-04-21T00:53:58.529Z,7.59
2019-04-21T00:55:07.629Z,7.60
2019-04-21T00:56:15.614Z,7.61
2019-04-21T00:57:12.039Z,7.61
2019-04-21T00:58:17.534Z,7.61
2019-04-21T00:59:20.126Z,7.60
2019-04-21T01:00:22.134Z,7.60
2019-04-21T01:01:26.738Z,7.59
2019-04-21T01:02:35.009Z,7.59
2019-04-21T01:03:36.178Z,7.59
2019-04-21T01:04:39.979Z,7.59
2019-04-21T01:05:49.690Z,7.59
2019-04-21T01:06:49.652Z,7.58
2019-04-21T01:07:46.983Z,7.57
2019-04-21T01:08:55.262Z,7.55
2019-04-21T01:09:48.546Z,7.53
2019-04-21T01:10:52.787Z,7.52
2019-04-21T01:12:08.088Z,7.51
2019-04-21T01:13:18.376Z,7.49
2019-04-21T01:14:25.983Z,7.46
2019-04-21T01:15:26.407Z,7.43
2019-04-21T01:16:31.080Z,7.39
2019-04-21T01:17:32.145Z,7.35
2019-04-21T01:18:33.223Z,7.32
2019-04-21T01:19:33.743Z,7.31
2019-04-21T01:20:18.808Z,7.28
2019-04-21T01:21:24.995Z,7.24
2019-04-21T01:22:28.646Z,7.21
2019-04-21T01:23:33.705Z,7.18
2019-04-21T01:24:42.950Z,7.17
2019-04-21T01:25:50.414Z,7.16
2019-04-21T01:26:59.125Z,7.15
2019-04-21T01:28:05.024Z,7.13
2019-04-21T01:29:11.818Z,7.09
2019-04-21T01:30:19.245Z,7.05
2019-04-21T01:31:17.089Z,7.02
2019-04-21T01:32:29.718Z,7.00
2019-04-21T01:33:33.591Z,6.99
2019-04-21T01:34:39.418Z,6.99
2019-04-21T01:35:39.674Z,6.98
2019-04-21T01:36:38.760Z,6.97
2019-04-21T01:37:49.482Z,6.97
2019-04-21T01:38:56.573Z,6.96
2019-04-21T01:40:04.691Z,6.97
2019-04-21T01:41:10.002Z,6.98
2019-04-21T01:42:03.560Z,6.99
2019-04-21T01:43:07.734Z,6.99
2019-04-21T01:44:22.424Z,6.97
2019-04-21T01:45:18.891Z,6.97
2019-04-21T01:46:19.558Z,6.96
2019-04-21T01:47:20.484Z,6.96
2019-04-21T01:48:24.389Z,6.95
2019-04-21T01:49:28.623Z,6.93
2019-04-21T01:50:36.288Z,6.92
2019-04-21T01:51:46.777Z,6.92
2019-04-21T01:52:53.134Z,6.93
2019-04-21T01:53:59.556Z,6.93
2019-04-21T01:55:02.684Z,6.92
2019-04-21T01:56:00.558Z,6.91
2019-04-21T01:58:01.440Z,6.86
2019-04-21T01:59:01.533Z,6.85
2019-04-21T02:00:12.543Z,6.83
2019-04-21T02:01:23.051Z,6.81
2019-04-21T02:02:28.067Z,6.79
2019-04-21T02:03:50.185Z,6.78
2019-04-21T02:04:41.298Z,6.78
2019-04-21T02:05:46.677Z,6.78
2019-04-21T02:06:44.365Z,6.78
2019-04-21T02:07:44.767Z,6.78
2019-04-21T02:08:49.074Z,6.79
2019-04-21T02:10:00.819Z,6.81
2019-04-21T02:11:05.251Z,6.82
2019-04-21T02:12:10.102Z,6.82
2019-04-21T02:13:09.022Z,6.80
2019-04-21T02:14:17.593Z,6.76
2019-04-21T02:15:26.845Z,6.72
2019-04-21T02:16:23.096Z,6.66
2019-04-21T02:17:29.219Z,6.61
2019-04-21T02:18:33.914Z,6.52
2019-04-21T02:19:31.577Z,6.41
2019-04-21T02:20:31.725Z,6.32
2019-04-21T02:21:41.050Z,6.26
2019-04-21T02:23:07.418Z,6.22
2019-04-21T02:23:59.044Z,6.21
2019-04-21T02:25:01.000Z,6.21
2019-04-21T02:26:08.026Z,6.22
2019-04-21T02:27:08.586Z,6.21
2019-04-21T02:28:13.430Z,6.18
2019-04-21T02:29:20.635Z,6.13
2019-04-21T02:30:29.388Z,6.07
2019-04-21T02:31:39.383Z,6.00
2019-04-21T02:32:48.457Z,5.94
2019-04-21T02:33:45.878Z,5.86
2019-04-21T02:34:49.086Z,5.78
2019-04-21T02:37:06.535Z,5.66
2019-04-21T02:38:03.762Z,5.62
2019-04-21T02:39:15.895Z,5.58
2019-04-21T02:40:11.246Z,5.54
2019-04-21T02:41:05.835Z,5.52
2019-04-21T02:42:23.814Z,5.52
2019-04-21T02:44:30.216Z,5.58
2019-04-21T02:45:30.186Z,5.60
2019-04-21T02:47:47.964Z,5.62
2019-04-21T02:48:49.024Z,5.62
2019-04-21T02:49:56.608Z,5.62
2019-04-21T02:51:04.742Z,5.62
2019-04-21T02:52:01.263Z,5.62
2019-04-21T02:54:37.345Z,5.65
2019-04-21T02:55:22.182Z,5.66
2019-04-21T02:57:18.535Z,5.73
2019-04-21T02:58:25.046Z,5.78
2019-04-21T02:59:23.651Z,5.82
2019-04-21T03:00:30.345Z,5.83
2019-04-21T03:05:53.058Z,5.71
2019-04-21T03:07:03.730Z,5.69
2019-04-21T03:08:09.864Z,5.69
2019-04-21T03:09:09.185Z,5.68
2019-04-21T03:10:28.687Z,5.68
2019-04-21T03:11:49.007Z,5.66
2019-04-21T03:13:26.700Z,5.59
2019-04-21T03:15:31.161Z,5.53
2019-04-21T03:16:26.487Z,5.50
2019-04-21T03:20:51.012Z,5.17
2019-04-21T03:22:02.994Z,5.10
2019-04-21T03:23:00.326Z,5.04
2019-04-21T03:23:58.337Z,4.98
2019-04-21T03:27:34.896Z,4.82
2019-04-21T03:28:16.174Z,4.79
2019-04-21T03:29:28.284Z,4.77
2019-04-21T03:30:52.964Z,4.77
2019-04-21T03:31:55.445Z,4.78
2019-04-21T03:33:16.662Z,4.82
2019-04-21T03:36:12.879Z,4.98
2019-04-21T03:38:16.620Z,5.09
2019-04-21T03:39:17.902Z,5.13
2019-04-21T03:41:12.640Z,5.21
2019-04-21T03:43:20.881Z,5.27
2019-04-21T03:44:24.707Z,5.29
2019-04-21T03:45:32.636Z,5.30
2019-04-21T03:46:35.786Z,5.30
2019-04-21T03:47:39.844Z,5.27
2019-04-21T03:48:42.726Z,5.22
2019-04-21T03:50:48.311Z,5.01
2019-04-21T03:52:03.783Z,4.90
2019-04-21T03:54:00.190Z,4.64
2019-04-21T03:55:36.080Z,4.51
2019-04-21T03:57:21.989Z,4.28
2019-04-21T03:58:47.003Z,4.18
2019-04-21T03:59:16.112Z,4.10
2019-04-21T04:01:41.203Z,3.96
2019-04-21T04:02:45.133Z,3.92
2019-04-21T04:04:44.163Z,3.91
2019-04-21T04:07:08.231Z,3.91
2019-04-21T04:08:18.512Z,3.92
2019-04-21T04:12:13.181Z,4.01
2019-04-21T04:13:37.637Z,4.04
2019-04-21T04:14:22.852Z,4.08
2019-04-21T04:15:34.763Z,4.12
2019-04-21T04:17:32.993Z,4.17
2019-04-21T04:20:51.681Z,4.21
2019-04-21T04:22:01.280Z,4.23
2019-04-21T04:23:08.048Z,4.27
2019-04-21T04:25:07.030Z,4.36
2019-04-21T04:28:19.461Z,4.49
2019-04-21T04:29:24.504Z,4.50
2019-04-21T04:31:37.664Z,4.48
2019-04-21T04:32:34.740Z,4.44
2019-04-21T04:34:49.805Z,4.39
2019-04-21T04:36:03.816Z,4.38
2019-04-21T04:37:12.702Z,4.37
2019-04-21T04:37:59.185Z,4.35
2019-04-21T04:39:14.183Z,4.34
2019-04-21T04:40:09.991Z,4.33
2019-04-21T04:41:16.245Z,4.33
2019-04-21T04:43:19.883Z,4.32
2019-04-21T04:44:32.263Z,4.31
2019-04-21T04:45:37.325Z,4.30
2019-04-21T04:46:37.673Z,4.29
2019-04-21T04:47:32.907Z,4.30
2019-04-21T04:48:39.033Z,4.30
2019-04-21T04:49:48.068Z,4.31
2019-04-21T04:50:49.473Z,4.34
2019-04-21T04:52:51.313Z,4.37
2019-04-21T04:55:03.743Z,4.39
2019-04-21T04:57:14.487Z,4.41
2019-04-21T04:58:54.675Z,4.44
2019-04-21T04:59:43.666Z,4.46
2019-04-21T05:01:32.375Z,4.53
2019-04-21T05:05:53.244Z,4.70
2019-04-21T05:08:01.625Z,4.80
2019-04-21T05:09:59.638Z,4.92
2019-04-21T05:11:20.716Z,4.99
2019-04-21T05:12:01.648Z,5.04
2019-04-21T05:13:21.318Z,5.10
2019-04-21T05:14:16.744Z,5.15
2019-04-21T05:15:16.200Z,5.21
2019-04-21T05:17:38.604Z,5.32
2019-04-21T05:18:50.438Z,5.35
2019-04-21T05:19:42.666Z,5.40
2019-04-21T05:20:49.232Z,5.43
2019-04-21T05:21:49.825Z,5.48
2019-04-21T05:22:48.877Z,5.51
2019-04-21T05:23:48.391Z,5.55
2019-04-21T05:24:49.264Z,5.59
2019-04-21T05:25:52.176Z,5.63
2019-04-21T05:26:55.418Z,5.67
2019-04-21T05:27:57.813Z,5.71
2019-04-21T05:29:01.922Z,5.76
2019-04-21T05:30:16.954Z,5.82
2019-04-21T05:31:23.053Z,5.89
2019-04-21T05:32:39.785Z,5.97
2019-04-21T05:33:30.735Z,6.05
2019-04-21T05:34:31.934Z,6.15
2019-04-21T05:35:32.389Z,6.25
2019-04-21T05:36:39.560Z,6.39
2019-04-21T05:37:43.730Z,6.61
2019-04-21T05:38:41.786Z,6.87
2019-04-21T05:39:49.233Z,7.22
2019-04-21T05:40:51.347Z,7.68
2019-04-21T05:41:47.473Z,8.22
2019-04-21T05:43:04.409Z,8.79
2019-04-21T05:44:10.501Z,9.36
2019-04-21T05:46:21.605Z,10.30
2019-04-21T05:48:30.624Z,10.91
2019-04-21T05:49:27.977Z,11.10
2019-04-21T05:50:32.095Z,11.23
2019-04-21T05:51:35.575Z,11.38
2019-04-21T05:52:38.354Z,11.49
2019-04-21T05:53:48.056Z,11.60
2019-04-21T05:54:59.646Z,11.67
2019-04-21T05:56:01.714Z,11.71
2019-04-21T05:57:01.109Z,11.75
2019-04-21T05:57:58.509Z,11.80
2019-04-21T05:59:10.283Z,11.84
2019-04-21T06:00:15.480Z,11.88
2019-04-21T06:01:24.328Z,11.93
2019-04-21T06:02:27.751Z,11.93
2019-04-21T06:03:30.739Z,11.95
2019-04-21T06:04:52.086Z,11.99
2019-04-21T06:05:47.862Z,12.01
2019-04-21T06:06:43.586Z,12.10
2019-04-21T06:07:42.840Z,12.23
2019-04-21T06:08:48.329Z,12.37
2019-04-21T06:09:56.891Z,12.52
2019-04-21T06:11:16.137Z,12.56
2019-04-21T06:12:03.475Z,12.52
2019-04-21T06:13:13.339Z,12.50
2019-04-21T06:14:29.410Z,12.52
2019-04-21T06:15:16.640Z,12.56
2019-04-21T06:16:21.507Z,12.53
2019-04-21T06:17:33.004Z,12.54
2019-04-21T06:18:35.405Z,12.55
2019-04-21T06:19:38.572Z,12.44
2019-04-21T06:20:33.469Z,12.39
2019-04-21T06:21:40.461Z,12.32
2019-04-21T06:22:46.311Z,12.29
2019-04-21T06:23:47.789Z,12.26
2019-04-21T06:25:21.977Z,12.21
2019-04-21T06:26:27.048Z,12.14
2019-04-21T06:27:22.938Z,12.06
2019-04-21T06:28:04.801Z,12.04
2019-04-21T06:29:10.212Z,12.02
2019-04-21T06:30:12.074Z,12.03
2019-04-21T06:31:40.841Z,12.01
2019-04-21T06:32:46.130Z,12.03
2019-04-21T06:33:44.815Z,12.05
2019-04-21T06:34:47.590Z,12.08
2019-04-21T06:35:48.775Z,12.12
2019-04-21T06:36:53.175Z,12.13
2019-04-21T06:37:49.477Z,12.18
2019-04-21T06:39:00.019Z,12.26
2019-04-21T06:40:09.239Z,12.30
2019-04-21T06:41:07.561Z,12.32
2019-04-21T06:42:03.669Z,12.36
2019-04-21T06:43:24.538Z,12.38
2019-04-21T06:44:13.011Z,12.41
2019-04-21T06:45:25.441Z,12.47
2019-04-21T06:46:25.615Z,12.49
2019-04-21T06:47:29.978Z,12.53
2019-04-21T06:48:36.643Z,12.57
2019-04-21T06:49:31.384Z,12.63
2019-04-21T06:50:41.167Z,12.75
2019-04-21T06:51:58.252Z,12.87
2019-04-21T06:55:00.072Z,13.18
2019-04-21T06:56:00.002Z,13.29
2019-04-21T06:57:03.289Z,13.38
2019-04-21T06:58:08.403Z,13.49
2019-04-21T06:59:09.737Z,13.56
2019-04-21T07:00:12.086Z,13.65
2019-04-21T07:01:26.598Z,13.68
2019-04-21T07:03:34.766Z,13.85
2019-04-21T07:04:36.819Z,13.91
2019-04-21T07:05:40.971Z,13.94
2019-04-21T07:07:00.470Z,13.92
2019-04-21T07:08:05.192Z,13.89
2019-04-21T07:09:02.915Z,13.85
2019-04-21T07:09:57.069Z,13.83
2019-04-21T07:10:56.737Z,13.82
2019-04-21T07:12:04.178Z,13.86
2019-04-21T07:13:04.980Z,13.91
2019-04-21T07:15:20.140Z,13.98
2019-04-21T07:16:25.456Z,14.00
2019-04-21T07:17:46.952Z,14.05
2019-04-21T07:18:39.815Z,14.05
2019-04-21T07:19:35.177Z,14.09
2019-04-21T07:20:39.246Z,14.12
2019-04-21T07:21:39.833Z,14.17
2019-04-21T07:22:48.062Z,14.20
2019-04-21T07:23:57.229Z,14.24
2019-04-21T07:24:58.984Z,14.29
2019-04-21T07:26:01.157Z,14.33
2019-04-21T07:27:00.226Z,14.36
2019-04-21T07:28:10.923Z,14.38
2019-04-21T07:29:14.214Z,14.41
2019-04-21T07:30:23.127Z,14.46
2019-04-21T07:31:25.183Z,14.49
2019-04-21T07:32:27.777Z,14.52
2019-04-21T07:33:50.918Z,14.56
2019-04-21T07:34:37.975Z,14.61
2019-04-21T07:35:38.021Z,14.64
2019-04-21T07:36:51.818Z,14.73
2019-04-21T07:37:51.020Z,14.79
2019-04-21T07:38:50.286Z,14.86
2019-04-21T07:39:54.635Z,14.92
2019-04-21T07:40:53.903Z,14.98
2019-04-21T07:41:59.276Z,15.02
2019-04-21T07:43:04.147Z,15.07
2019-04-21T07:44:04.357Z,15.13
2019-04-21T07:45:13.333Z,15.20
2019-04-21T07:46:17.196Z,15.26
2019-04-21T07:47:27.095Z,15.28
2019-04-21T07:48:32.248Z,15.30
2019-04-21T07:49:36.926Z,15.34
2019-04-21T07:50:41.676Z,15.37
2019-04-21T07:51:45.266Z,15.39
2019-04-21T07:52:53.244Z,15.44
2019-04-21T07:53:55.885Z,15.50
2019-04-21T07:55:05.442Z,15.56
2019-04-21T07:55:42.948Z,15.59
2019-04-21T07:56:56.054Z,15.64
2019-04-21T07:58:10.859Z,15.66
2019-04-21T07:59:09.032Z,15.70
2019-04-21T08:00:31.919Z,15.74
2019-04-21T08:01:25.102Z,15.75
2019-04-21T08:02:22.174Z,15.80
2019-04-21T08:03:35.510Z,15.83
2019-04-21T08:05:49.942Z,15.81
2019-04-21T08:06:49.544Z,15.83
2019-04-21T08:08:11.109Z,15.83
2019-04-21T08:08:53.074Z,15.83
2019-04-21T08:09:51.045Z,15.81
2019-04-21T08:10:57.004Z,15.85
2019-04-21T08:12:00.328Z,15.86
2019-04-21T08:13:09.907Z,15.88
2019-04-21T08:14:19.205Z,15.93
2019-04-21T08:15:24.962Z,15.91
2019-04-21T08:16:24.424Z,15.89
2019-04-21T08:17:23.721Z,15.88
2019-04-21T08:18:34.810Z,15.95
2019-04-21T08:19:38.315Z,16.01
2019-04-21T08:20:34.669Z,16.10
2019-04-21T08:21:51.449Z,16.20
2019-04-21T08:22:51.817Z,16.30
2019-04-21T08:23:55.460Z,16.37
2019-04-21T08:24:58.802Z,16.44
2019-04-21T08:26:13.838Z,16.50
2019-04-21T08:27:13.835Z,16.52
2019-04-21T08:28:13.877Z,16.56
2019-04-21T08:29:33.394Z,16.62
2019-04-21T08:30:21.472Z,16.68
2019-04-21T08:31:32.272Z,16.74
2019-04-21T08:32:42.096Z,16.78
2019-04-21T08:33:38.405Z,16.80
2019-04-21T08:34:43.237Z,16.84
2019-04-21T08:36:49.286Z,16.89
2019-04-21T08:37:50.947Z,16.92
2019-04-21T08:38:54.571Z,16.96
2019-04-21T08:40:19.404Z,17.00
2019-04-21T08:42:03.311Z,17.03
2019-04-21T08:43:20.560Z,17.04
2019-04-21T08:44:24.308Z,17.06
2019-04-21T08:45:25.486Z,17.09
2019-04-21T08:46:25.834Z,17.11
2019-04-21T08:47:35.302Z,17.13
2019-04-21T08:48:37.560Z,17.17
2019-04-21T08:49:44.164Z,17.16
2019-04-21T08:50:46.194Z,17.22
2019-04-21T08:51:51.692Z,17.19
2019-04-21T08:52:58.327Z,17.19
2019-04-21T08:54:16.807Z,17.27
2019-04-21T08:56:12.223Z,17.37
2019-04-21T08:57:08.099Z,17.45
2019-04-21T08:58:22.741Z,17.52
2019-04-21T08:59:25.473Z,17.61
2019-04-21T09:00:26.554Z,17.67
2019-04-21T09:01:33.347Z,17.78
2019-04-21T09:02:35.055Z,17.83
2019-04-21T09:03:35.796Z,17.81
2019-04-21T09:04:41.035Z,17.80
2019-04-21T09:05:47.484Z,17.83
2019-04-21T09:07:00.317Z,17.82
2019-04-21T09:07:57.408Z,17.84
2019-04-21T09:09:01.558Z,17.80
2019-04-21T09:10:02.994Z,17.82
2019-04-21T09:11:09.200Z,17.90
2019-04-21T09:12:10.928Z,17.95
2019-04-21T09:13:10.283Z,17.93
2019-04-21T09:14:17.865Z,17.93
2019-04-21T09:15:25.839Z,17.93
2019-04-21T09:16:26.655Z,17.95
2019-04-21T09:17:28.576Z,18.00
2019-04-21T09:18:32.448Z,18.08
2019-04-21T09:19:51.393Z,18.06
2019-04-21T09:21:51.543Z,18.08
2019-04-21T09:22:54.296Z,18.06
2019-04-21T09:23:56.321Z,18.01
2019-04-21T09:25:01.625Z,17.95
2019-04-21T09:26:11.833Z,17.95
2019-04-21T09:27:08.422Z,17.97
2019-04-21T09:28:12.624Z,18.00
2019-04-21T09:29:10.901Z,18.04
2019-04-21T09:30:08.853Z,18.14
2019-04-21T09:31:12.245Z,18.26
2019-04-21T09:32:20.271Z,18.35
2019-04-21T09:33:20.860Z,18.36
2019-04-21T09:34:34.323Z,18.35
2019-04-21T09:35:29.316Z,18.31
2019-04-21T09:36:40.272Z,18.31
2019-04-21T09:37:47.353Z,18.27
2019-04-21T09:38:45.727Z,18.29
2019-04-21T09:39:51.677Z,18.32
2019-04-21T09:40:54.450Z,18.35
2019-04-21T09:41:59.136Z,18.37
2019-04-21T09:43:04.730Z,18.40
2019-04-21T09:44:08.732Z,18.39
2019-04-21T09:45:11.999Z,18.43
2019-04-21T09:46:14.236Z,18.45
2019-04-21T09:47:22.922Z,18.50
2019-04-21T09:48:24.297Z,18.53
2019-04-21T09:49:31.125Z,18.55
2019-04-21T09:50:31.835Z,18.57
2019-04-21T09:51:35.953Z,18.58
2019-04-21T09:52:48.898Z,18.51
2019-04-21T09:53:54.599Z,18.49
2019-04-21T09:54:58.648Z,18.51
2019-04-21T09:55:59.357Z,18.53
2019-04-21T09:57:03.516Z,18.56
2019-04-21T09:58:10.113Z,18.58
2019-04-21T09:59:16.445Z,18.59
2019-04-21T10:00:18.295Z,18.63
2019-04-21T10:01:22.798Z,18.63
2019-04-21T10:02:32.771Z,18.65
2019-04-21T10:03:24.093Z,18.66
2019-04-21T10:04:28.991Z,18.69
2019-04-21T10:05:33.788Z,18.73
2019-04-21T10:06:39.508Z,18.77
2019-04-21T10:07:44.198Z,18.80
2019-04-21T10:08:50.376Z,18.78
2019-04-21T10:09:52.442Z,18.80
2019-04-21T10:10:56.906Z,18.82
2019-04-21T10:12:00.831Z,18.83
2019-04-21T10:13:05.034Z,18.84
2019-04-21T10:14:09.734Z,18.85
2019-04-21T10:15:14.218Z,18.88
2019-04-21T10:16:17.679Z,18.86
2019-04-21T10:17:21.999Z,18.89
2019-04-21T10:18:27.321Z,18.90
2019-04-21T10:19:31.583Z,18.92
2019-04-21T10:20:36.335Z,18.92
2019-04-21T10:21:40.251Z,18.85
2019-04-21T10:22:44.768Z,18.83
2019-04-21T10:23:48.495Z,18.84
2019-04-21T10:24:54.239Z,18.87
2019-04-21T10:25:58.689Z,18.88
2019-04-21T10:27:04.094Z,18.90
2019-04-21T10:28:07.277Z,18.92
2019-04-21T10:29:19.757Z,18.92
2019-04-21T10:30:16.052Z,18.94
2019-04-21T10:31:19.235Z,18.98
2019-04-21T10:32:25.262Z,19.01
2019-04-21T10:33:28.306Z,19.02
2019-04-21T10:34:32.461Z,19.05
2019-04-21T10:35:37.125Z,19.07
2019-04-21T10:36:41.264Z,19.10
2019-04-21T10:37:59.419Z,19.12
2019-04-21T10:38:53.139Z,19.15
2019-04-21T10:39:55.720Z,19.17
2019-04-21T10:40:59.249Z,19.20
2019-04-21T10:42:03.583Z,19.23
2019-04-21T10:43:10.752Z,19.19
2019-04-21T10:44:13.409Z,19.23
2019-04-21T10:45:17.036Z,19.24
2019-04-21T10:46:20.925Z,19.25
2019-04-21T10:47:25.301Z,19.23
2019-04-21T10:48:31.733Z,19.26
2019-04-21T10:49:34.944Z,19.25
2019-04-21T10:50:38.943Z,19.20
2019-04-21T10:51:43.350Z,19.18
2019-04-21T10:52:47.360Z,19.20
2019-04-21T10:53:52.859Z,19.25
2019-04-21T10:55:23.366Z,19.31
2019-04-21T10:56:12.259Z,19.29
2019-04-21T10:57:06.340Z,19.32
2019-04-21T10:58:10.840Z,19.32
2019-04-21T10:59:14.364Z,19.33
2019-04-21T11:00:18.798Z,19.37
2019-04-21T11:01:23.183Z,19.43
2019-04-21T11:02:27.128Z,19.50
2019-04-21T11:03:33.074Z,19.56
2019-04-21T11:04:38.360Z,19.63
2019-04-21T11:05:40.728Z,19.70
2019-04-21T11:06:44.793Z,19.76
2019-04-21T11:08:01.163Z,19.78
2019-04-21T11:08:55.639Z,19.78
2019-04-21T11:09:58.088Z,19.79
2019-04-21T11:11:03.637Z,19.85
2019-04-21T11:12:08.250Z,19.92
2019-04-21T11:13:12.469Z,19.98
2019-04-21T11:14:15.758Z,20.00
2019-04-21T11:15:21.161Z,19.99
2019-04-21T11:16:24.704Z,20.03
2019-04-21T11:17:30.245Z,20.10
2019-04-21T11:18:33.997Z,20.17
2019-04-21T11:19:38.971Z,20.12
2019-04-21T11:20:42.792Z,20.16
2019-04-21T11:21:47.101Z,20.23
2019-04-21T11:22:51.440Z,20.19
2019-04-21T11:23:56.518Z,20.20
2019-04-21T11:25:00.775Z,20.22
2019-04-21T11:26:04.612Z,20.16
2019-04-21T11:27:09.042Z,20.16
2019-04-21T11:28:14.442Z,20.15
2019-04-21T11:29:19.095Z,20.21
2019-04-21T11:30:23.329Z,20.28
2019-04-21T11:31:27.211Z,20.23
2019-04-21T11:32:31.129Z,20.31
2019-04-21T11:33:35.707Z,20.42
2019-04-21T11:34:40.999Z,20.28
2019-04-21T11:35:45.493Z,20.26
2019-04-21T11:36:49.914Z,20.34
2019-04-21T11:38:04.020Z,20.36
2019-04-21T11:39:08.584Z,20.45
2019-04-21T11:40:08.542Z,20.55
2019-04-21T11:41:07.711Z,20.64
2019-04-21T11:42:12.020Z,20.74
2019-04-21T11:43:15.769Z,20.75
2019-04-21T11:44:22.588Z,20.88
2019-04-21T11:45:24.448Z,20.97
2019-04-21T11:46:28.774Z,21.18
2019-04-21T11:47:34.252Z,21.32
2019-04-21T11:48:37.573Z,21.50
2019-04-21T11:49:43.152Z,21.72
2019-04-21T11:50:46.755Z,21.92
2019-04-21T11:51:51.180Z,22.15
2019-04-21T11:52:56.819Z,22.24
2019-04-21T11:54:01.082Z,22.13
2019-04-21T11:55:04.734Z,22.06
2019-04-21T11:56:09.035Z,22.09
2019-04-21T11:57:20.489Z,22.17
2019-04-21T11:58:18.160Z,22.37
2019-04-21T11:59:22.192Z,22.60
2019-04-21T12:00:27.385Z,22.68
2019-04-21T12:01:31.865Z,22.65
2019-04-21T12:02:35.505Z,22.41
2019-04-21T12:03:40.045Z,22.35
2019-04-21T12:04:45.417Z,22.35
2019-04-21T12:05:48.819Z,22.34
2019-04-21T12:06:54.569Z,22.41
2019-04-21T12:07:58.505Z,22.41
2019-04-21T12:09:04.567Z,22.47
2019-04-21T12:10:06.543Z,22.42
2019-04-21T12:11:11.415Z,22.53
2019-04-21T12:12:15.426Z,22.63
2019-04-21T12:13:20.418Z,22.69
2019-04-21T12:14:24.422Z,22.68
2019-04-21T12:15:29.174Z,22.67
2019-04-21T12:16:33.315Z,22.68
2019-04-21T12:17:38.206Z,22.60
2019-04-21T12:18:42.948Z,22.60
2019-04-21T12:19:46.810Z,22.68
2019-04-21T12:20:51.634Z,22.63
2019-04-21T12:22:05.286Z,22.70
2019-04-21T12:23:00.418Z,22.92
2019-04-21T12:24:04.623Z,23.07
2019-04-21T12:25:09.346Z,23.07
2019-04-21T12:26:13.929Z,23.03
2019-04-21T12:27:18.188Z,23.18
2019-04-21T12:28:23.830Z,23.16
2019-04-21T12:29:27.010Z,23.11
2019-04-21T12:30:31.595Z,23.05
2019-04-21T12:31:35.913Z,23.12
2019-04-21T12:32:40.392Z,23.32
2019-04-21T12:33:45.908Z,23.54
2019-04-21T12:34:51.727Z,23.78
2019-04-21T12:35:53.818Z,24.02
2019-04-21T12:36:59.103Z,24.11
2019-04-21T12:38:02.894Z,24.24
2019-04-21T12:39:08.719Z,24.37
2019-04-21T12:40:12.712Z,24.48
2019-04-21T12:41:16.256Z,24.39
2019-04-21T12:42:20.844Z,24.46
2019-04-21T12:43:26.452Z,24.42
2019-04-21T12:44:29.781Z,24.26
2019-04-21T12:45:34.242Z,24.06
2019-04-21T12:46:40.041Z,23.97
2019-04-21T12:47:44.051Z,23.79
2019-04-21T12:48:47.651Z,23.64
2019-04-21T12:49:52.133Z,23.69
2019-04-21T12:50:57.553Z,23.55
2019-04-21T12:52:01.866Z,23.61
2019-04-21T12:53:05.475Z,23.54
2019-04-21T12:54:09.960Z,23.48
2019-04-21T12:55:15.405Z,23.52
2019-04-21T12:56:19.798Z,23.55
2019-04-21T12:57:23.457Z,23.60
2019-04-21T12:58:28.974Z,23.39
2019-04-21T12:59:32.903Z,23.25
2019-04-21T13:00:36.813Z,23.30
2019-04-21T13:01:41.288Z,23.31
2019-04-21T13:02:45.651Z,23.33
2019-04-21T13:03:50.101Z,23.35
2019-04-21T13:04:55.786Z,23.42
2019-04-21T13:05:58.941Z,23.43
2019-04-21T13:07:03.743Z,23.51
2019-04-21T13:08:09.168Z,23.60
2019-04-21T13:09:16.064Z,23.61
2019-04-21T13:10:18.053Z,23.61
2019-04-21T13:11:21.479Z,23.59
2019-04-21T13:12:26.888Z,23.71
2019-04-21T13:13:30.258Z,23.76
2019-04-21T13:14:35.820Z,23.76
2019-04-21T13:15:39.793Z,23.76
2019-04-21T13:16:43.607Z,23.70
2019-04-21T13:17:48.129Z,23.74
2019-04-21T13:18:53.421Z,23.76
2019-04-21T13:19:57.042Z,23.51
2019-04-21T13:21:02.699Z,23.20
2019-04-21T13:22:06.055Z,23.20
2019-04-21T13:23:10.333Z,23.29
2019-04-21T13:24:15.941Z,23.37
2019-04-21T13:25:20.103Z,23.40
2019-04-21T13:26:32.765Z,23.27
2019-04-21T13:27:28.882Z,23.05
2019-04-21T13:28:32.574Z,22.93
2019-04-21T13:29:36.969Z,22.81
2019-04-21T13:30:42.277Z,22.63
2019-04-21T13:31:45.835Z,22.66
2019-04-21T13:32:51.376Z,22.73
2019-04-21T13:33:55.744Z,22.80
2019-04-21T13:34:59.202Z,22.88
2019-04-21T13:36:04.995Z,22.98
2019-04-21T13:37:08.156Z,23.06
2019-04-21T13:38:24.483Z,23.13
2019-04-21T13:39:44.406Z,23.08
2019-04-21T13:40:39.892Z,22.92
2019-04-21T13:41:42.015Z,22.75
2019-04-21T13:42:40.211Z,22.51
2019-04-21T13:43:37.206Z,22.31
2019-04-21T13:44:41.580Z,22.08
2019-04-21T13:45:45.977Z,21.98
2019-04-21T13:46:50.384Z,21.90
2019-04-21T13:47:54.832Z,21.78
2019-04-21T13:48:59.290Z,21.75
2019-04-21T13:50:05.279Z,21.71
2019-04-21T13:51:09.114Z,21.62
2019-04-21T13:52:12.991Z,21.55
2019-04-21T13:53:17.033Z,21.48
2019-04-21T13:54:21.947Z,21.45
2019-04-21T13:55:25.889Z,21.40
2019-04-21T13:56:30.322Z,21.38
2019-04-21T13:57:34.781Z,21.28
2019-04-21T13:58:40.143Z,21.24
2019-04-21T13:59:44.508Z,21.20
2019-04-21T14:00:50.383Z,21.19
2019-04-21T14:01:53.880Z,21.19
2019-04-21T14:02:58.621Z,21.21
2019-04-21T14:04:01.946Z,21.22
2019-04-21T14:05:08.541Z,21.21
2019-04-21T14:06:10.240Z,21.16
2019-04-21T14:07:14.640Z,21.12
2019-04-21T14:08:19.043Z,21.10
2019-04-21T14:09:34.270Z,21.08
2019-04-21T14:10:26.966Z,21.10
2019-04-21T14:11:31.453Z,21.14
2019-04-21T14:12:36.167Z,21.10
2019-04-21T14:13:40.565Z,21.06
2019-04-21T14:14:46.212Z,20.97
2019-04-21T14:15:51.635Z,20.93
2019-04-21T14:16:54.224Z,20.95
2019-04-21T14:17:58.363Z,20.99
2019-04-21T14:19:03.396Z,20.95
2019-04-21T14:20:07.020Z,20.98
2019-04-21T14:21:11.410Z,21.02
2019-04-21T14:22:16.017Z,21.06
2019-04-21T14:23:28.603Z,21.09
2019-04-21T14:24:24.727Z,21.11
2019-04-21T14:25:29.909Z,21.15
2019-04-21T14:26:34.332Z,21.19
2019-04-21T14:27:38.537Z,21.22
2019-04-21T14:28:43.028Z,21.23
2019-04-21T14:29:46.868Z,21.24
2019-04-21T14:30:52.574Z,21.17
2019-04-21T14:31:56.117Z,21.12
2019-04-21T14:33:00.394Z,21.07
2019-04-21T14:34:05.866Z,21.00
2019-04-21T14:35:09.163Z,20.94
2019-04-21T14:36:14.831Z,20.87
2019-04-21T14:37:18.014Z,20.83
2019-04-21T14:38:22.777Z,20.79
2019-04-21T14:39:28.145Z,20.73
2019-04-21T14:40:33.351Z,20.66
2019-04-21T14:41:35.896Z,20.60
2019-04-21T14:42:40.255Z,20.57
2019-04-21T14:43:45.830Z,20.55
2019-04-21T14:44:49.159Z,20.54
2019-04-21T14:45:54.414Z,20.53
2019-04-21T14:46:57.862Z,20.52
2019-04-21T14:48:03.180Z,20.50
2019-04-21T14:49:06.660Z,20.49
2019-04-21T14:50:11.425Z,20.49
2019-04-21T14:51:16.834Z,20.47
2019-04-21T14:52:21.209Z,20.44
2019-04-21T14:53:25.548Z,20.40
2019-04-21T14:54:28.916Z,20.37
2019-04-21T14:55:33.207Z,20.33
2019-04-21T14:56:37.605Z,20.30
2019-04-21T14:57:43.135Z,20.29
2019-04-21T14:58:46.872Z,20.26
2019-04-21T14:59:51.196Z,20.26
2019-04-21T15:00:55.690Z,20.25
2019-04-21T15:01:59.993Z,20.25
2019-04-21T15:03:05.480Z,20.23